createdAt,value
2023-01-04T00:03:43.166Z,6
2023-01-04T00:09:42.936Z,6
2023-01-04T00:15:43.025Z,7
2023-01-04T00:21:42.941Z,6
2023-01-04T00:27:42.945Z,8
2023-01-04T00:33:42.921Z,6
2023-01-04T00:39:43.012Z,6
2023-01-04T00:45:42.921Z,8
2023-01-04T00:51:42.910Z,5
2023-01-04T00:57:42.969Z,6
2023-01-04T01:03:43.008Z,8
2023-01-04T01:09:42.899Z,9
2023-01-04T01:15:43.240Z,5
2023-01-04T01:21:42.941Z,5
2023-01-04T01:27:42.984Z,6
2023-01-04T01:33:53.198Z,5
2023-01-04T01:39:42.928Z,5
2023-01-04T01:45:42.904Z,8
2023-01-04T01:51:42.969Z,5
2023-01-04T01:57:42.929Z,5
2023-01-04T02:03:42.988Z,7
2023-01-04T02:09:42.919Z,9
2023-01-04T02:15:42.953Z,7
2023-01-04T02:21:42.903Z,5
2023-01-04T02:27:42.937Z,11
2023-01-04T02:33:42.976Z,8
2023-01-04T02:39:42.955Z,8
2023-01-04T02:45:42.940Z,6
2023-01-04T02:51:42.926Z,9
2023-01-04T02:57:42.913Z,7
2023-01-04T03:03:43.046Z,8
2023-01-04T03:09:42.916Z,6
2023-01-04T03:15:42.914Z,6
2023-01-04T03:21:42.919Z,10
2023-01-04T03:27:42.911Z,5
2023-01-04T03:33:42.910Z,6
2023-01-04T03:39:42.971Z,6
2023-01-04T03:45:42.978Z,7
2023-01-04T03:51:42.984Z,4
2023-01-04T03:57:42.895Z,4
2023-01-04T04:03:42.964Z,4
2023-01-04T04:09:42.897Z,2
2023-01-04T04:15:42.945Z,3
2023-01-04T04:21:42.968Z,5
2023-01-04T04:27:42.921Z,3
2023-01-04T04:33:42.993Z,3
2023-01-04T04:39:42.923Z,3
2023-01-04T04:45:42.933Z,2
2023-01-04T04:51:42.904Z,1
2023-01-04T04:57:42.922Z,2
2023-01-04T05:03:42.970Z,3
2023-01-04T05:09:42.954Z,2
2023-01-04T05:15:42.895Z,3
2023-01-04T05:21:42.879Z,2
2023-01-04T05:27:42.928Z,1
2023-01-04T05:33:42.886Z,1
2023-01-04T05:39:42.882Z,1
2023-01-04T05:45:42.987Z,1
2023-01-04T05:51:42.877Z,1
2023-01-04T05:57:42.936Z,3
2023-01-04T06:03:43.110Z,2
2023-01-04T06:09:42.915Z,1
2023-01-04T06:15:43.465Z,1
2023-01-04T06:21:43.004Z,1
2023-01-04T06:27:42.913Z,1
2023-01-04T06:33:42.901Z,1
2023-01-04T06:39:42.894Z,1
2023-01-04T06:45:42.981Z,2
2023-01-04T06:51:42.896Z,2
2023-01-04T06:57:42.981Z,1
2023-01-04T07:03:43.014Z,1
2023-01-04T07:09:42.896Z,1
2023-01-04T07:15:42.914Z,0
2023-01-04T07:21:42.883Z,1
2023-01-04T07:27:42.883Z,1
2023-01-04T07:33:42.886Z,1
2023-01-04T07:39:42.880Z,1
2023-01-04T07:45:42.862Z,1
2023-01-04T07:51:42.919Z,1
2023-01-04T07:57:42.886Z,1
2023-01-04T08:03:42.866Z,1
2023-01-04T08:09:42.940Z,0
2023-01-04T08:15:42.963Z,2
2023-01-04T08:21:42.881Z,2
2023-01-04T08:27:42.966Z,1
2023-01-04T08:33:42.896Z,1
2023-01-04T08:39:48.526Z,1
2023-01-04T08:45:43.026Z,1
2023-01-04T08:51:42.908Z,1
2023-01-04T08:57:42.929Z,1
2023-01-04T09:03:42.901Z,1
2023-01-04T09:09:42.876Z,2
2023-01-04T09:15:53.235Z,2
2023-01-04T09:21:43.000Z,3
2023-01-04T09:27:42.870Z,2
2023-01-04T09:34:12.777Z,1
2023-01-04T09:39:42.913Z,1
2023-01-04T09:45:42.913Z,3
2023-01-04T09:51:42.944Z,3
2023-01-04T09:57:42.947Z,8
2023-01-04T10:03:42.995Z,2
2023-01-04T10:09:42.859Z,5
2023-01-04T10:15:42.903Z,1
2023-01-04T10:21:42.957Z,1
2023-01-04T10:27:43.227Z,1
2023-01-04T10:33:42.868Z,1
2023-01-04T10:39:53.130Z,1
2023-01-04T10:45:42.884Z,1
2023-01-04T10:51:42.873Z,1
2023-01-04T10:57:42.883Z,1
2023-01-04T11:03:42.938Z,2
2023-01-04T11:09:42.889Z,2
2023-01-04T11:15:42.866Z,1
2023-01-04T11:21:42.860Z,2
2023-01-04T11:27:42.898Z,2
2023-01-04T11:33:42.871Z,1
2023-01-04T11:39:42.851Z,2
2023-01-04T11:45:42.910Z,3
2023-01-04T11:51:42.862Z,3
2023-01-04T11:57:42.852Z,3
2023-01-04T12:03:42.894Z,5
2023-01-04T12:09:42.854Z,2
2023-01-04T12:15:42.875Z,2
2023-01-04T12:21:42.883Z,2
2023-01-04T12:27:42.996Z,3
2023-01-04T12:33:42.837Z,1
2023-01-04T12:39:42.920Z,1
2023-01-04T12:45:42.902Z,1
2023-01-04T12:51:58.243Z,1
2023-01-04T12:57:42.867Z,1
2023-01-04T13:03:53.276Z,1
2023-01-04T13:09:46.532Z,1
2023-01-04T13:15:42.906Z,1
2023-01-04T13:21:42.896Z,2
2023-01-04T13:27:42.862Z,1
2023-01-04T13:33:42.963Z,2
2023-01-04T13:39:42.885Z,2
2023-01-04T13:45:42.901Z,4
2023-01-04T13:51:42.891Z,2
2023-01-04T13:57:42.848Z,2
2023-01-04T14:03:42.964Z,1
2023-01-04T14:09:42.867Z,1
2023-01-04T14:15:42.939Z,1
2023-01-04T14:21:42.863Z,1
2023-01-04T14:27:42.923Z,2
2023-01-04T14:33:42.858Z,2
2023-01-04T14:39:42.864Z,2
2023-01-04T14:45:42.879Z,2
2023-01-04T14:51:42.863Z,2
2023-01-04T14:57:42.878Z,5
2023-01-04T15:03:42.877Z,4
2023-01-04T15:09:42.878Z,5
2023-01-04T15:15:42.893Z,3
2023-01-04T15:21:42.893Z,5
2023-01-04T15:27:43.349Z,2
2023-01-04T15:33:42.866Z,1
2023-01-04T15:39:42.883Z,1
2023-01-04T15:45:42.854Z,1
2023-01-04T15:51:42.847Z,1
2023-01-04T15:57:44.336Z,2
2023-01-04T16:03:42.867Z,3
2023-01-04T16:09:42.919Z,2
2023-01-04T16:15:42.904Z,2
2023-01-04T16:21:42.863Z,1
2023-01-04T16:27:42.846Z,1
2023-01-04T16:33:42.879Z,2
2023-01-04T16:40:05.902Z,2
2023-01-04T16:45:42.888Z,1
2023-01-04T16:51:42.902Z,2
2023-01-04T16:57:42.851Z,2
2023-01-04T17:03:43.038Z,2
2023-01-04T17:09:42.890Z,1
2023-01-04T17:15:44.312Z,2
2023-01-04T17:21:42.854Z,2
2023-01-04T17:27:42.892Z,2
2023-01-04T17:33:42.847Z,2
2023-01-04T17:39:42.842Z,3
2023-01-04T17:45:42.943Z,6
2023-01-04T17:51:42.843Z,5
2023-01-04T18:03:44.642Z,7
2023-01-04T18:09:42.872Z,11
2023-01-04T18:15:54.975Z,11
2023-01-04T18:21:42.956Z,12
2023-01-04T18:27:43.088Z,10
2023-01-04T18:33:42.863Z,18
2023-01-04T18:39:42.898Z,16
2023-01-04T18:45:42.898Z,16
2023-01-04T18:51:42.852Z,14
2023-01-04T18:57:42.885Z,17
2023-01-04T19:03:42.901Z,15
2023-01-04T19:09:42.966Z,18
2023-01-04T19:15:47.502Z,11
2023-01-04T19:21:42.845Z,19
2023-01-04T19:27:42.860Z,13
2023-01-04T19:33:42.906Z,15
2023-01-04T19:39:42.858Z,13
2023-01-04T19:45:42.946Z,17
2023-01-04T19:51:42.944Z,18
2023-01-04T19:57:42.866Z,15
2023-01-04T20:03:43.022Z,17
2023-01-04T20:09:42.891Z,15
2023-01-04T20:15:42.860Z,15
2023-01-04T20:21:42.877Z,15
2023-01-04T20:27:42.874Z,9
2023-01-04T20:33:42.892Z,15
2023-01-04T20:39:42.862Z,16
2023-01-04T20:45:42.880Z,18
2023-01-04T20:51:42.846Z,18
2023-01-04T20:57:42.861Z,14
2023-01-04T21:03:42.949Z,16
2023-01-04T21:09:42.841Z,14
2023-01-04T21:15:43.211Z,17
2023-01-04T21:21:42.883Z,15
2023-01-04T21:27:42.861Z,12
2023-01-04T21:33:42.861Z,14
2023-01-04T21:39:42.891Z,12
2023-01-04T21:45:42.852Z,13
2023-01-04T21:51:42.881Z,16
2023-01-04T21:57:42.866Z,13
2023-01-04T22:03:42.953Z,10
2023-01-04T22:09:42.832Z,9
2023-01-04T22:15:42.966Z,10
2023-01-04T22:21:42.865Z,14
2023-01-04T22:27:42.837Z,12
2023-01-04T22:33:42.892Z,12
2023-01-04T22:39:42.856Z,12
2023-01-04T22:45:43.047Z,13
2023-01-04T22:51:42.847Z,10
2023-01-04T22:57:42.876Z,13
2023-01-04T23:03:43.013Z,11
2023-01-04T23:09:42.913Z,13
2023-01-04T23:15:42.872Z,12
2023-01-04T23:21:42.852Z,14
2023-01-04T23:27:42.908Z,10
2023-01-04T23:33:42.845Z,12
2023-01-04T23:39:42.870Z,11
2023-01-04T23:45:42.876Z,11
2023-01-04T23:51:42.952Z,14
2023-01-04T23:57:42.876Z,12
